Terminal Aerodrome Forecast
Issued by NWS Green Bay, WI

Home | Current Version | Previous Version | Text Only | Print | Product List | Glossary Off
Versions: 1 2 3 4 5 6 7 8 9 10 11 12 13 14 15 16 17 18 19 20 21 22 23 24 25 26 27 28 29 30 31 32 33 34 35 36 37 38 39 40 41 42 43 44 45 46 47 48 49 50

000
FTUS43 KGRB 182300
TAFGRB
TAF
KGRB 182331Z 1900/1924 23006KT P6SM SCT022 OVC080
      TEMPO 1900/1904 2SM +TSRA BKN022CB
     FM190400 17003KT 3SM BR VCTS BKN035CB OVC100
     FM191400 22006KT 6SM BR SCT025 BKN040 PROB30 1914/1919 4SM
      -SHRA OVC025
     FM191900 28008KT 4SM BR VCSH BKN035
      TEMPO 1920/1924 1SM +TSRA BR OVC018CB=

USA.gov is the U.S. government's official web portal to all federal, state and local government web resources and services.